Lancaster, California
Current Conditions -  °F | °C
As of 10:56 PM on Friday 24 Oct 2014 (Local Time) from KWJF Reporting Station
Clear Clear  
Wind Chill: 62°   Ceiling: Unl
Heat Index: 62°   Visibility: 10mi
Dew Point: 28°   Wind: 9mph
Humidity: 28%   Direction: 300°WNW
Pressure: 30.06"   Gusts: NA
Location:  34.7°N, 118.14°W
Report Text: KWJF 250556Z 30008KT 10SM CLR 17/M02 A3006 RMK AO2 SLP169 T01671022 10278 20167 51013
Loading
Personal Weather Stations






























Interactive Weather Map
Tropical Storm Tracking
New forecast layout! Learn more

10-Day Weather Forecast

Advertisements
Track Severe Weather on mobile